This is the latest recevied weather packets stored in our database for station/object KA0WKG. If no packets are shown the sender has not sent any weather packets the latest 10 day(s).
| Time | Temp. | Humidity | Pressure | Rain* | Wind** | Luminosity | Snow |
|---|---|---|---|---|---|---|---|
| 1777493106 | 8.89° C | 92% | 1019 hPa | 0 mm | - | - | - |
| 1777492208 | 8.89° C | 89% | 1018.7 hPa | 0 mm | - | - | - |
| 1777487706 | 11.67° C | 69% | 1018.7 hPa | 0.25 mm | - | - | - |
| 1777487106 | 12.78° C | 64% | 1018.5 hPa | 0 mm | - | - | - |
| 1777486806 | 13.89° C | 62% | 1018.4 hPa | 0 mm | - | - | - |
| 1777485006 | 14.44° C | 63% | 1018.5 hPa | 0 mm | - | - | - |
| 1777480806 | 14.44° C | 54% | 1019.6 hPa | 0 mm | - | - | - |
| 1777480506 | 14.44° C | 57% | 1019.6 hPa | 0 mm | - | - | - |
| 1777473906 | 6.11° C | 99% | 1020.5 hPa | 0 mm | - | - | - |
| 1777473005 | 4.44° C | 99% | 1020.6 hPa | 0 mm | - | - | - |
| 1777469405 | 1.11° C | 99% | 1020.7 hPa | 0 mm | - | - | - |
| 1777465206 | 0° C | 98% | 1020.6 hPa | 0 mm | - | - | - |
| 1777462806 | 0° C | 98% | 1020.6 hPa | 0 mm | - | - | - |
| 1777461604 | 0.56° C | 98% | 1020.6 hPa | 0 mm | - | - | - |
| 1777461006 | 0.56° C | 98% | 1020.5 hPa | 0 mm | - | - | - |
| 1777460705 | 0° C | 98% | 1020.6 hPa | 0 mm | - | - | - |
| 1777458004 | 0.56° C | 98% | 1020.5 hPa | 0 mm | - | - | - |
| 1777457104 | 1.11° C | 98% | 1020.5 hPa | 0 mm | - | - | - |
| 1777452305 | 2.22° C | 98% | 1020.7 hPa | 0.25 mm | - | - | - |
| 1777448404 | 2.78° C | 98% | 1021.4 hPa | 0 mm | - | - | - |
| 1777447208 | 2.78° C | 98% | 1021.4 hPa | 0 mm | - | - | - |
| 1777443308 | 2.78° C | 98% | 1021.3 hPa | 0 mm | - | - | - |
| 1777442709 | 2.78° C | 98% | 1021.4 hPa | 0 mm | - | - | - |
| 1777440308 | 3.33° C | 97% | 1021.4 hPa | 0 mm | - | - | - |
| 1777439708 | 3.33° C | 97% | 1021.3 hPa | 0 mm | - | - | - |
* Rain latest hour (hover to see other rain measurements)
** Current wind speed in m/s (hover to see current wind gust speed)